createdAt,value
2022-10-10T00:01:22.920Z,0.88715
2022-10-10T00:06:27.154Z,0.88715
2022-10-10T00:11:30.900Z,0
2022-10-10T00:16:32.705Z,0
2022-10-10T00:21:34.298Z,0
2022-10-10T00:26:35.955Z,0
2022-10-10T00:31:38.122Z,0
2022-10-10T00:36:39.930Z,0
2022-10-10T00:41:41.829Z,0
2022-10-10T00:46:43.797Z,0
2022-10-10T00:51:45.445Z,0
2022-10-10T00:56:47.197Z,0
2022-10-10T01:01:49.141Z,0
2022-10-10T01:06:50.586Z,0
2022-10-10T01:11:52.090Z,0
2022-10-10T01:16:54.054Z,0
2022-10-10T01:21:55.664Z,0
2022-10-10T01:26:57.132Z,0.88715
2022-10-10T01:31:58.829Z,0
2022-10-10T01:37:00.454Z,0
2022-10-10T01:42:02.327Z,0
2022-10-10T01:47:04.089Z,0
2022-10-10T01:52:05.977Z,0.88715
2022-10-10T01:57:07.722Z,0.88715
2022-10-10T02:02:09.760Z,0.88715
2022-10-10T02:07:11.693Z,0
2022-10-10T02:12:13.712Z,0
2022-10-10T02:17:15.984Z,0
2022-10-10T02:22:18.103Z,0
2022-10-10T02:27:19.885Z,0
2022-10-10T02:32:21.733Z,0
2022-10-10T02:37:23.423Z,0
2022-10-10T02:42:24.944Z,0
2022-10-10T02:47:27.637Z,0
2022-10-10T02:52:29.524Z,0
2022-10-10T02:57:31.202Z,0
2022-10-10T03:02:33.228Z,0
2022-10-10T03:07:34.978Z,0.88715
2022-10-10T03:12:37.335Z,0.88715
2022-10-10T03:17:39.759Z,0.88715
2022-10-10T03:22:41.681Z,1.16185
2022-10-10T03:27:43.485Z,0.88885
2022-10-10T03:32:45.763Z,3.85445
2022-10-10T03:37:47.881Z,4.4078
2022-10-10T03:42:50.202Z,8.63115
2022-10-10T03:47:52.728Z,10.47565
2022-10-10T03:52:54.725Z,19.4757
2022-10-10T03:57:56.796Z,25.3029
2022-10-10T04:02:58.856Z,35.0211
2022-10-10T04:08:00.753Z,46.4397
2022-10-10T04:13:02.216Z,66.0257
2022-10-10T04:18:04.396Z,84.2654
2022-10-10T04:23:06.429Z,111.7809
2022-10-10T04:28:08.252Z,135.4971
2022-10-10T04:33:10.143Z,154.75035
2022-10-10T04:38:12.014Z,172.8056
2022-10-10T04:43:14.193Z,198.3853
2022-10-10T04:48:16.466Z,213.26875
2022-10-10T04:53:18.515Z,207.20275
2022-10-10T04:58:20.458Z,219.68835
2022-10-10T05:03:21.988Z,255.1695
2022-10-10T05:08:23.462Z,291.53675
2022-10-10T05:13:25.044Z,303.26925
2022-10-10T05:18:27.645Z,339.87795
2022-10-10T05:23:29.484Z,355.33375
2022-10-10T05:28:31.153Z,347.699
2022-10-10T05:33:32.953Z,346.33185
2022-10-10T05:38:35.041Z,350.97555
2022-10-10T05:43:36.707Z,320.583
2022-10-10T05:48:39.578Z,303.41385
2022-10-10T05:53:41.385Z,312.045
2022-10-10T05:58:43.317Z,311.97085
2022-10-10T06:03:44.990Z,333.36335
2022-10-10T06:08:46.778Z,357.0624
2022-10-10T06:13:48.786Z,386.2018
2022-10-10T06:18:51.504Z,417.72005
2022-10-10T06:23:53.236Z,424.0312
2022-10-10T06:28:54.988Z,449.2573
2022-10-10T06:33:56.991Z,475.26105
2022-10-10T06:38:58.688Z,529.98015
2022-10-10T06:44:00.592Z,568.72995
2022-10-10T06:49:02.597Z,589.2725
2022-10-10T06:54:04.465Z,599.82045
2022-10-10T06:59:06.443Z,637.29625
2022-10-10T07:04:08.523Z,710.4432
2022-10-10T07:09:10.563Z,791.58455
2022-10-10T07:14:12.370Z,833.21695
2022-10-10T07:19:14.773Z,873.973
2022-10-10T07:24:16.782Z,880.64935
2022-10-10T07:29:18.581Z,911.63325
2022-10-10T07:34:20.405Z,937.95075
2022-10-10T07:39:22.221Z,959.75015
2022-10-10T07:44:23.841Z,979.83435
2022-10-10T07:49:25.917Z,1007.01895
2022-10-10T07:54:27.469Z,1022.82465
2022-10-10T07:59:29.119Z,1055.191
2022-10-10T08:04:30.646Z,1083.2237
2022-10-10T08:09:32.359Z,1084.589
2022-10-10T08:14:33.988Z,1098.052
2022-10-10T08:19:35.990Z,1124.20405
2022-10-10T08:24:37.867Z,1149.78375
2022-10-10T08:29:39.407Z,1173.2432
2022-10-10T08:34:41.380Z,1198.5833
2022-10-10T08:39:43.104Z,1216.63855
2022-10-10T08:44:44.658Z,1241.97865
2022-10-10T08:49:46.320Z,1243.21465
2022-10-10T08:54:48.163Z,1277.24105
2022-10-10T08:59:50.202Z,1285.6516
2022-10-10T09:04:52.016Z,1291.84875
2022-10-10T09:09:53.567Z,1320.61925
2022-10-10T09:14:59.792Z,1347.2505
2022-10-10T09:20:04.226Z,1363.11135
2022-10-10T09:25:06.028Z,1376.7588
2022-10-10T09:30:08.091Z,1396.78785
2022-10-10T09:35:10.198Z,1414.76895
2022-10-10T09:40:12.222Z,1427.01495
2022-10-10T09:45:14.024Z,1429.22835
2022-10-10T09:50:16.442Z,1450.8433
2022-10-10T09:55:18.256Z,1477.7883
2022-10-10T10:00:20.213Z,1479.81725
2022-10-10T10:05:22.130Z,1470.39315
2022-10-10T10:10:23.871Z,1506.87255
2022-10-10T10:15:25.701Z,1499.07235
2022-10-10T10:20:28.465Z,1548.75615
2022-10-10T10:25:31.546Z,1538.48395
2022-10-10T10:30:33.945Z,1549.97315
2022-10-10T10:35:36.049Z,1600.3206
2022-10-10T10:40:38.017Z,1618.1914
2022-10-10T10:45:39.826Z,1644.0107
2022-10-10T10:50:42.925Z,1655.33445
2022-10-10T10:55:44.752Z,1673.7396
2022-10-10T11:01:23.000Z,1659.13375
2022-10-10T11:06:30.765Z,1666.3996
2022-10-10T11:11:32.638Z,1656.1084
2022-10-10T11:16:47.883Z,1662.3417
2022-10-10T11:21:51.727Z,1669.4231
2022-10-10T11:26:53.505Z,1654.4845
2022-10-10T11:31:55.646Z,1652.2711
2022-10-10T11:36:57.475Z,1699.66735
2022-10-10T11:41:59.257Z,1708.2795
2022-10-10T11:47:01.364Z,1661.0107
2022-10-10T11:52:31.942Z,1698.6158
2022-10-10T11:57:34.878Z,1704.29575
2022-10-10T12:02:36.571Z,1698.04345
2022-10-10T12:07:38.513Z,1694.24415
2022-10-10T12:12:40.210Z,1637.80985
2022-10-10T12:17:41.744Z,1598.63785
2022-10-10T12:22:44.000Z,1563.4116
2022-10-10T12:27:45.824Z,1529.9937
2022-10-10T12:32:47.633Z,1547.20085
2022-10-10T12:37:49.216Z,1562.39805
2022-10-10T12:42:51.015Z,1493.99535
2022-10-10T12:48:05.144Z,1433.7066
2022-10-10T12:53:08.765Z,1269.84405
2022-10-10T12:58:20.861Z,1214.5563
2022-10-10T13:03:27.911Z,1167.36535
2022-10-10T13:08:29.543Z,1270.0322
2022-10-10T13:13:31.246Z,1221.1775
2022-10-10T13:18:32.697Z,1085.5474
2022-10-10T13:23:34.453Z,939.2419
2022-10-10T13:28:36.640Z,1014.45395
2022-10-10T13:33:38.477Z,1113.69595
2022-10-10T13:38:40.166Z,994.22515
2022-10-10T13:43:41.880Z,916.06375
2022-10-10T13:48:43.821Z,892.7911
2022-10-10T13:53:45.866Z,841.7262
2022-10-10T13:58:47.620Z,862.84295
2022-10-10T14:03:49.648Z,835.124
2022-10-10T14:08:51.760Z,786.5469
2022-10-10T14:13:53.775Z,685.24165
2022-10-10T14:18:55.763Z,621.72595
2022-10-10T14:23:57.951Z,561.07015
2022-10-10T14:28:59.823Z,519.06885
2022-10-10T14:34:01.587Z,482.9871
2022-10-10T14:39:03.643Z,450.6759
2022-10-10T14:44:05.388Z,424.3621
2022-10-10T14:49:10.996Z,355.5442
2022-10-10T14:54:15.183Z,318.0688
2022-10-10T14:59:17.021Z,282.62195
2022-10-10T15:04:19.024Z,258.24025
2022-10-10T15:09:40.084Z,224.4706
2022-10-10T15:14:42.955Z,199.88545
2022-10-10T15:19:44.406Z,170.98565
2022-10-10T15:24:46.531Z,150.9376
2022-10-10T15:29:48.663Z,129.857
2022-10-10T15:34:50.643Z,107.6697
2022-10-10T15:39:52.500Z,92.5828
2022-10-10T15:44:54.112Z,76.59265
2022-10-10T15:49:56.048Z,59.0166
2022-10-10T15:54:58.227Z,47.0102
2022-10-10T15:59:59.747Z,33.7868
2022-10-10T16:05:01.246Z,22.2786
2022-10-10T16:10:02.906Z,10.5308
2022-10-10T16:15:06.953Z,9.0552
2022-10-10T16:20:09.378Z,2.42955
2022-10-10T16:25:22.956Z,3.85445
2022-10-10T16:30:24.846Z,1.16185
2022-10-10T16:35:26.531Z,0.88715
2022-10-10T16:40:28.553Z,0.88715
2022-10-10T16:45:30.282Z,0
2022-10-10T16:50:32.106Z,0
2022-10-10T16:55:33.893Z,0
2022-10-10T17:00:35.493Z,0
2022-10-10T17:05:37.199Z,0
2022-10-10T17:10:39.016Z,0
2022-10-10T17:15:40.808Z,0
2022-10-10T17:20:42.297Z,0
2022-10-10T17:25:44.455Z,0
2022-10-10T17:30:46.174Z,0
2022-10-10T17:35:48.409Z,0
2022-10-10T17:40:50.266Z,0
2022-10-10T17:45:52.244Z,0
2022-10-10T17:50:54.162Z,0
2022-10-10T17:55:56.316Z,0
2022-10-10T18:00:58.154Z,0
2022-10-10T18:06:00.806Z,0
2022-10-10T18:11:03.353Z,0
2022-10-10T18:16:07.293Z,0
2022-10-10T18:21:09.472Z,0
2022-10-10T18:26:11.344Z,0
2022-10-10T18:31:13.992Z,0
2022-10-10T18:36:16.487Z,0
2022-10-10T18:41:18.362Z,0
2022-10-10T18:46:20.362Z,0
2022-10-10T18:51:22.566Z,0.88715
2022-10-10T18:56:25.083Z,0
2022-10-10T19:01:26.561Z,0
2022-10-10T19:06:27.877Z,0
2022-10-10T19:11:29.742Z,0.88715
2022-10-10T19:16:31.089Z,0
2022-10-10T19:21:32.595Z,0
2022-10-10T19:26:34.446Z,0
2022-10-10T19:31:36.128Z,0
2022-10-10T19:36:39.972Z,0
2022-10-10T19:41:43.620Z,0
2022-10-10T19:46:45.311Z,0
2022-10-10T19:51:47.415Z,0.88715
2022-10-10T19:56:49.177Z,0
2022-10-10T20:01:50.959Z,0
2022-10-10T20:06:52.658Z,0
2022-10-10T20:11:54.427Z,0
2022-10-10T20:16:55.988Z,0
2022-10-10T20:21:57.901Z,0
2022-10-10T20:26:59.631Z,0.88715
2022-10-10T20:32:01.135Z,0
2022-10-10T20:37:02.638Z,0
2022-10-10T20:42:04.794Z,0
2022-10-10T20:47:06.572Z,0
2022-10-10T20:52:08.367Z,0.88715
2022-10-10T20:57:10.673Z,0
2022-10-10T21:02:15.928Z,0
2022-10-10T21:07:21.443Z,0
2022-10-10T21:12:23.482Z,0
2022-10-10T21:17:25.681Z,0
2022-10-10T21:22:27.320Z,0
2022-10-10T21:27:29.270Z,0
2022-10-10T21:32:31.063Z,0
2022-10-10T21:37:32.496Z,0
2022-10-10T21:42:34.635Z,0
2022-10-10T21:47:36.400Z,0
2022-10-10T21:52:38.403Z,0
2022-10-10T21:57:40.453Z,0
2022-10-10T22:02:42.236Z,0
2022-10-10T22:07:44.211Z,0
2022-10-10T22:12:46.240Z,0.88715
2022-10-10T22:17:48.288Z,0
2022-10-10T22:22:50.307Z,0
2022-10-10T22:27:57.018Z,0
2022-10-10T22:32:59.132Z,0
2022-10-10T22:38:00.998Z,0
2022-10-10T22:43:03.227Z,0.88715
2022-10-10T22:48:05.278Z,0
2022-10-10T22:53:07.291Z,0.88715
2022-10-10T22:58:09.516Z,0
2022-10-10T23:03:11.622Z,0
2022-10-10T23:08:13.443Z,0
2022-10-10T23:13:15.521Z,0
2022-10-10T23:18:17.320Z,0
2022-10-10T23:23:19.323Z,0
2022-10-10T23:28:21.570Z,0.88715
2022-10-10T23:33:23.428Z,0
2022-10-10T23:38:25.647Z,0
2022-10-10T23:43:27.273Z,0
2022-10-10T23:48:29.108Z,0
2022-10-10T23:53:30.730Z,0.88715
2022-10-10T23:58:32.716Z,0
